Time;durP1;ratioP1;P1;durP2;ratioP2;P2;SDS_P1;SDS_P2;PMS_P1;PMS_P2;Temp;Humidity;BMP_temperature;BMP_pressure;BME280_temperature;BME280_humidity;BME280_pressure;Samples;Min_cycle;Max_cycle;Signal;HPM_P1;HPM_P2
2021/01/01 00:00:13;;;;;;;26.65;15.20;;;;;;;-1.92;100.00;95205.19;4977900;28;20054;-45
2021/01/01 00:02:40;;;;;;;28.95;15.77;;;;;;;-2.12;100.00;95205.66;4985510;28;20054;-44
2021/01/01 00:05:15;;;;;;;28.73;15.75;;;;;;;-2.27;100.00;95213.47;4952607;28;20053;-45
2021/01/01 00:07:43;;;;;;;29.30;16.02;;;;;;;-2.21;100.00;95220.78;4982330;28;20046;-44
2021/01/01 00:10:11;;;;;;;30.88;15.82;;;;;;;-2.33;100.00;95219.00;4958489;28;20097;-45
2021/01/01 00:12:38;;;;;;;26.35;14.68;;;;;;;-2.47;100.00;95222.47;4980559;28;20053;-45
2021/01/01 00:15:06;;;;;;;30.40;16.48;;;;;;;-2.60;100.00;95218.97;4941836;28;20132;-42
2021/01/01 00:17:33;;;;;;;26.83;15.10;;;;;;;-2.59;100.00;95228.38;4985076;28;20049;-42
2021/01/01 00:20:00;;;;;;;28.38;15.15;;;;;;;-2.49;100.00;95232.03;4952941;28;20050;-44
2021/01/01 00:22:28;;;;;;;26.50;14.07;;;;;;;-2.54;100.00;95236.66;4982028;28;20050;-43
2021/01/01 00:24:55;;;;;;;24.90;13.52;;;;;;;-2.48;100.00;95240.59;4930130;28;20069;-45
2021/01/01 00:27:22;;;;;;;31.08;15.98;;;;;;;-2.52;100.00;95233.97;4985296;28;20042;-46
2021/01/01 00:29:48;;;;;;;30.58;15.93;;;;;;;-2.53;100.00;95235.75;4951562;28;20050;-44
2021/01/01 00:32:15;;;;;;;29.35;15.55;;;;;;;-2.74;100.00;95243.06;4983041;28;20452;-47
2021/01/01 00:34:42;;;;;;;30.52;15.57;;;;;;;-2.85;100.00;95236.91;4948781;28;20038;-49
2021/01/01 00:37:09;;;;;;;29.48;17.30;;;;;;;-2.87;100.00;95240.38;4980635;28;20723;-43
2021/01/01 00:39:37;;;;;;;31.95;16.63;;;;;;;-2.92;100.00;95241.59;4950638;28;20532;-45
2021/01/01 00:42:04;;;;;;;31.27;16.13;;;;;;;-2.88;100.00;95248.22;4983473;28;20078;-47
2021/01/01 00:44:32;;;;;;;32.00;16.52;;;;;;;-3.00;100.00;95244.63;4952774;28;20101;-48
2021/01/01 00:47:00;;;;;;;34.08;15.98;;;;;;;-3.05;100.00;95245.84;4983957;28;20104;-45
2021/01/01 00:49:26;;;;;;;30.75;15.75;;;;;;;-3.06;100.00;95245.03;4983676;28;20081;-46
2021/01/01 00:51:53;;;;;;;27.42;15.38;;;;;;;-3.05;100.00;95240.69;4945256;28;20042;-48
2021/01/01 00:54:20;;;;;;;30.20;16.13;;;;;;;-3.13;100.00;95244.56;4983587;28;20117;-45
2021/01/01 00:56:48;;;;;;;31.98;16.98;;;;;;;-3.23;100.00;95248.59;4949853;28;20046;-45
2021/01/01 00:59:15;;;;;;;34.08;16.80;;;;;;;-3.16;100.00;95251.66;4982816;28;20045;-42
2021/01/01 01:01:42;;;;;;;33.03;16.23;;;;;;;-3.07;100.00;95256.22;4952618;28;20585;-48
2021/01/01 01:04:08;;;;;;;27.58;15.00;;;;;;;-3.31;100.00;95260.28;4984294;28;20050;-45
2021/01/01 01:06:36;;;;;;;31.30;15.85;;;;;;;-3.43;100.00;95262.66;4939945;28;20046;-45
2021/01/01 01:09:03;;;;;;;33.55;17.02;;;;;;;-3.40;100.00;95264.22;4983201;28;20669;-42
2021/01/01 01:11:30;;;;;;;36.30;17.20;;;;;;;-3.42;100.00;95261.72;4951604;28;20109;-45
2021/01/01 01:13:59;;;;;;;38.08;17.60;;;;;;;-3.38;100.00;95260.63;4987203;28;20042;-43
2021/01/01 01:16:29;;;;;;;33.20;17.20;;;;;;;-3.26;100.00;95258.28;4944225;28;20043;-43
2021/01/01 01:18:57;;;;;;;37.92;18.40;;;;;;;-3.32;100.00;95253.47;4983841;28;20046;-45
2021/01/01 01:21:25;;;;;;;41.80;19.30;;;;;;;-3.23;100.00;95250.34;4942931;28;20050;-45
2021/01/01 01:23:53;;;;;;;40.03;20.25;;;;;;;-3.06;100.00;95239.00;4983368;28;20070;-43
2021/01/01 01:26:20;;;;;;;38.95;19.63;;;;;;;-3.00;100.00;95242.06;4948519;28;20054;-43
2021/01/01 01:28:47;;;;;;;39.78;21.17;;;;;;;-3.02;100.00;95233.59;4991621;28;20093;-44
2021/01/01 01:31:15;;;;;;;43.55;20.90;;;;;;;-3.04;100.00;95242.34;4986746;28;20707;-43
2021/01/01 01:33:42;;;;;;;44.03;22.88;;;;;;;-2.98;100.00;95236.81;4961796;28;20077;-44
2021/01/01 01:36:09;;;;;;;54.70;26.02;;;;;;;-2.88;100.00;95246.47;4988457;28;20444;-45
2021/01/01 01:38:37;;;;;;;61.10;27.63;;;;;;;-2.84;100.00;95238.56;4956066;28;20050;-42
2021/01/01 01:41:05;;;;;;;61.90;32.55;;;;;;;-2.66;100.00;95232.25;4988727;28;20078;-44
2021/01/01 01:43:32;;;;;;;66.38;33.25;;;;;;;-2.56;100.00;95232.53;4947385;28;21590;-46
2021/01/01 01:45:59;;;;;;;65.57;31.83;;;;;;;-2.59;100.00;95220.63;4988304;28;20053;-47
2021/01/01 01:48:29;;;;;;;68.55;33.97;;;;;;;-2.59;100.00;95224.97;4951103;28;20557;-45
2021/01/01 01:50:56;;;;;;;72.43;34.90;;;;;;;-2.55;100.00;95224.66;4978537;28;20038;-42
2021/01/01 01:53:25;;;;;;;66.57;33.17;;;;;;;-2.56;100.00;95224.78;4944614;28;20132;-47
2021/01/01 01:55:53;;;;;;;73.63;34.47;;;;;;;-2.50;100.00;95229.56;4986471;28;20417;-47
2021/01/01 01:58:21;;;;;;;67.35;33.33;;;;;;;-2.41;100.00;95227.25;4952193;28;20038;-43
2021/01/01 02:00:58;;;;;;;73.18;34.63;;;;;;;-2.45;100.00;95223.16;4985887;28;20054;-44
2021/01/01 02:03:27;;;;;;;68.00;31.83;;;;;;;-2.40;100.00;95220.31;4943445;28;20725;-43
2021/01/01 02:05:55;;;;;;;59.38;31.35;;;;;;;-2.33;100.00;95223.34;4983391;28;20101;-47
2021/01/01 02:08:23;;;;;;;60.67;29.92;;;;;;;-2.31;100.00;95222.31;4951809;28;20050;-42
2021/01/01 02:10:51;;;;;;;64.93;29.90;;;;;;;-2.28;100.00;95222.13;4988971;28;20412;-46
2021/01/01 02:13:18;;;;;;;65.32;30.08;;;;;;;-2.26;100.00;95232.34;4945186;28;20050;-43
2021/01/01 02:15:45;;;;;;;62.45;27.73;;;;;;;-2.26;100.00;95222.84;4983605;28;20103;-45
2021/01/01 02:18:12;;;;;;;54.30;26.85;;;;;;;-2.19;100.00;95224.13;4955684;28;20097;-46
2021/01/01 02:20:40;;;;;;;52.38;25.45;;;;;;;-2.09;99.44;95228.72;4984299;28;20464;-47
2021/01/01 02:23:08;;;;;;;51.08;25.83;;;;;;;-2.06;99.21;95226.75;4985873;28;20121;-46
2021/01/01 02:25:35;;;;;;;55.28;24.90;;;;;;;-2.10;99.13;95221.88;4945454;28;20076;-43
2021/01/01 02:28:02;;;;;;;51.42;24.50;;;;;;;-2.12;99.39;95221.97;4982390;28;20133;-43
2021/01/01 02:30:29;;;;;;;51.53;24.55;;;;;;;-2.04;98.84;95224.06;4942902;28;20065;-43
2021/01/01 02:32:56;;;;;;;45.50;23.63;;;;;;;-1.98;98.27;95226.25;4972514;28;20054;-44
2021/01/01 02:35:23;;;;;;;50.45;23.67;;;;;;;-1.97;99.86;95223.56;4947713;28;20065;-42
2021/01/01 02:37:51;;;;;;;44.83;22.63;;;;;;;-1.96;100.00;95224.41;4985325;28;20046;-43
2021/01/01 02:40:19;;;;;;;50.03;23.08;;;;;;;-2.00;99.83;95221.16;4953470;28;20050;-43
2021/01/01 02:42:46;;;;;;;42.92;21.83;;;;;;;-1.99;100.00;95216.84;4987849;28;20042;-47
2021/01/01 02:45:14;;;;;;;47.83;24.38;;;;;;;-2.00;100.00;95215.19;4945169;28;20039;-43
2021/01/01 02:47:41;;;;;;;50.92;23.55;;;;;;;-1.95;99.64;95213.16;4985136;28;20046;-43
2021/01/01 02:50:11;;;;;;;45.90;22.98;;;;;;;-2.03;100.00;95217.97;4941410;28;20525;-45
2021/01/01 02:52:38;;;;;;;44.00;22.85;;;;;;;-2.04;100.00;95206.81;4984541;28;20063;-44
2021/01/01 02:55:07;;;;;;;48.95;22.13;;;;;;;-2.02;100.00;95214.47;4950858;28;20138;-43
2021/01/01 02:57:35;;;;;;;49.42;23.27;;;;;;;-1.99;100.00;95219.44;4987638;28;20053;-45
2021/01/01 03:00:03;;;;;;;44.25;21.92;;;;;;;-2.01;100.00;95218.69;4954269;28;22772;-44
2021/01/01 03:02:31;;;;;;;43.85;22.50;;;;;;;-2.00;100.00;95221.16;4989392;28;20069;-43
2021/01/01 03:04:58;;;;;;;43.53;20.65;;;;;;;-1.97;100.00;95208.06;4961641;28;20042;-43
2021/01/01 03:07:25;;;;;;;43.42;21.13;;;;;;;-1.97;100.00;95209.81;4981225;28;20042;-42
2021/01/01 03:09:51;;;;;;;39.20;19.95;;;;;;;-2.00;100.00;95212.59;4979875;28;20121;-44
2021/01/01 03:12:18;;;;;;;42.20;20.00;;;;;;;-2.15;100.00;95214.41;4942050;28;20065;-42
2021/01/01 03:14:47;;;;;;;40.25;20.40;;;;;;;-2.18;100.00;95220.59;4987611;28;20125;-44
2021/01/01 03:17:14;;;;;;;41.33;20.17;;;;;;;-2.19;100.00;95208.63;4953814;28;20046;-45
2021/01/01 03:19:40;;;;;;;38.03;21.55;;;;;;;-2.29;100.00;95217.06;4986042;28;20053;-42
2021/01/01 03:22:07;;;;;;;41.03;21.75;;;;;;;-2.22;100.00;95218.31;4946327;28;20038;-43
2021/01/01 03:24:35;;;;;;;44.72;22.83;;;;;;;-2.34;100.00;95217.38;4985492;28;20096;-43
2021/01/01 03:27:02;;;;;;;45.70;22.92;;;;;;;-2.36;100.00;95226.13;4947546;28;20058;-42
2021/01/01 03:29:29;;;;;;;48.03;23.45;;;;;;;-2.34;100.00;95216.50;4984115;28;20105;-42
2021/01/01 03:31:57;;;;;;;50.85;24.10;;;;;;;-2.28;100.00;95208.38;4950138;28;20074;-44
2021/01/01 03:34:24;;;;;;;49.05;24.15;;;;;;;-2.23;100.00;95202.00;4982598;28;20065;-46
2021/01/01 03:36:51;;;;;;;46.75;23.63;;;;;;;-2.04;100.00;95211.97;4934586;28;20401;-44
2021/01/01 03:39:18;;;;;;;46.30;21.80;;;;;;;-2.05;100.00;95214.66;4984021;28;20048;-43
2021/01/01 03:41:45;;;;;;;48.63;23.35;;;;;;;-2.03;100.00;95218.81;4946757;28;20054;-44
2021/01/01 03:44:12;;;;;;;50.17;23.20;;;;;;;-2.00;100.00;95217.75;4985237;28;20070;-42
2021/01/01 03:46:39;;;;;;;47.75;24.00;;;;;;;-1.98;100.00;95214.16;4947265;28;20097;-42
2021/01/01 03:49:07;;;;;;;47.33;23.45;;;;;;;-2.01;100.00;95221.28;4981935;28;20038;-45
2021/01/01 03:51:34;;;;;;;47.55;24.38;;;;;;;-2.05;100.00;95215.50;4974095;28;20042;-46
2021/01/01 03:54:00;;;;;;;47.45;23.75;;;;;;;-2.03;100.00;95211.06;4952705;28;20155;-43
2021/01/01 03:56:27;;;;;;;46.05;22.35;;;;;;;-2.05;100.00;95206.91;4980911;28;20128;-43
2021/01/01 03:58:54;;;;;;;48.78;24.20;;;;;;;-2.10;100.00;95208.94;4940984;28;20046;-43
2021/01/01 04:01:21;;;;;;;48.17;23.92;;;;;;;-2.19;100.00;95206.03;4984216;28;20532;-43
2021/01/01 04:03:48;;;;;;;44.92;22.38;;;;;;;-2.26;100.00;95199.63;4951284;28;20034;-49
2021/01/01 04:06:16;;;;;;;47.83;23.77;;;;;;;-2.28;100.00;95196.28;4981295;28;20045;-45
2021/01/01 04:08:43;;;;;;;47.45;24.25;;;;;;;-2.36;100.00;95195.97;4952588;28;20060;-46
2021/01/01 04:11:10;;;;;;;50.47;23.45;;;;;;;-2.44;100.00;95200.78;4984857;28;20050;-45
2021/01/01 04:13:37;;;;;;;48.22;22.40;;;;;;;-2.47;100.00;95201.81;4944707;28;20141;-44
2021/01/01 04:16:04;;;;;;;42.28;21.13;;;;;;;-2.42;100.00;95207.50;4981352;28;20617;-46
2021/01/01 04:18:31;;;;;;;45.47;21.77;;;;;;;-2.42;100.00;95217.81;4950283;28;20064;-45
2021/01/01 04:20:58;;;;;;;40.88;21.02;;;;;;;-2.46;100.00;95231.84;4979991;28;20053;-44
2021/01/01 04:23:26;;;;;;;46.60;21.77;;;;;;;-2.44;100.00;95224.03;4944579;28;20042;-48
2021/01/01 04:25:53;;;;;;;43.30;22.50;;;;;;;-2.41;100.00;95221.22;4987479;28;20535;-47
2021/01/01 04:28:19;;;;;;;44.60;22.67;;;;;;;-2.38;100.00;95227.03;4951698;28;20057;-44
2021/01/01 04:30:46;;;;;;;47.22;22.63;;;;;;;-2.34;100.00;95232.00;4978693;28;20125;-45
2021/01/01 04:33:13;;;;;;;43.08;21.10;;;;;;;-2.31;100.00;95226.63;4981662;28;20101;-44
2021/01/01 04:35:40;;;;;;;46.10;21.95;;;;;;;-2.36;100.00;95228.69;4950107;28;20077;-46
2021/01/01 04:38:07;;;;;;;45.95;20.58;;;;;;;-2.49;100.00;95231.22;4982421;28;20049;-46
2021/01/01 04:40:35;;;;;;;42.83;21.92;;;;;;;-2.61;100.00;95243.13;4952737;28;20042;-44
2021/01/01 04:43:02;;;;;;;45.08;21.25;;;;;;;-2.64;100.00;95248.50;4983038;28;20046;-44
2021/01/01 04:45:30;;;;;;;44.83;21.42;;;;;;;-2.69;100.00;95250.50;4945649;28;20489;-42
2021/01/01 04:47:57;;;;;;;46.83;22.02;;;;;;;-2.70;100.00;95254.00;4981138;28;20042;-43
2021/01/01 04:50:24;;;;;;;43.13;21.52;;;;;;;-2.77;100.00;95245.81;4944482;28;20143;-46
2021/01/01 04:52:57;;;;;;;44.33;21.67;;;;;;;-2.59;100.00;95251.59;4981284;28;20103;-44
2021/01/01 04:55:26;;;;;;;42.20;22.08;;;;;;;-2.68;100.00;95253.00;4946898;28;20405;-44
2021/01/01 04:57:54;;;;;;;42.72;21.17;;;;;;;-2.72;100.00;95250.69;4976178;28;20077;-46
2021/01/01 05:00:22;;;;;;;46.17;21.85;;;;;;;-2.79;100.00;95250.22;4946858;28;20109;-43
2021/01/01 05:02:49;;;;;;;43.50;22.70;;;;;;;-2.88;100.00;95243.91;4988050;28;20097;-41
2021/01/01 05:05:16;;;;;;;42.67;22.48;;;;;;;-3.06;100.00;95250.19;4954939;28;20663;-48
2021/01/01 05:07:43;;;;;;;45.28;22.17;;;;;;;-3.14;100.00;95248.03;4988930;28;20030;-44
2021/01/01 05:10:11;;;;;;;41.88;22.02;;;;;;;-3.29;100.00;95248.97;4942703;28;20050;-42
2021/01/01 05:12:38;;;;;;;44.75;21.80;;;;;;;-3.30;100.00;95247.31;4987845;28;20050;-42
2021/01/01 05:15:07;;;;;;;43.72;21.80;;;;;;;-3.37;100.00;95251.16;4954195;28;20145;-43
2021/01/01 05:17:35;;;;;;;44.33;21.27;;;;;;;-3.36;100.00;95245.91;4980126;28;21181;-42
2021/01/01 05:20:07;;;;;;;45.95;22.67;;;;;;;-3.31;100.00;95248.22;4987424;28;20038;-42
2021/01/01 05:22:34;;;;;;;46.30;21.83;;;;;;;-3.27;100.00;95247.13;4966395;28;20057;-44
2021/01/01 05:25:03;;;;;;;41.28;20.48;;;;;;;-3.25;100.00;95247.84;4984499;28;20516;-49
2021/01/01 05:27:34;;;;;;;43.10;19.27;;;;;;;-3.14;100.00;95247.22;4946161;28;20054;-42
2021/01/01 05:30:02;;;;;;;41.92;19.13;;;;;;;-2.98;100.00;95242.81;4989290;28;20042;-45
2021/01/01 05:32:30;;;;;;;40.08;20.38;;;;;;;-2.97;100.00;95251.34;4952786;28;20050;-43
2021/01/01 05:34:59;;;;;;;42.25;20.00;;;;;;;-2.89;100.00;95244.84;4986700;28;20533;-46
2021/01/01 05:37:31;;;;;;;35.45;17.73;;;;;;;-2.81;100.00;95246.94;4940765;28;20608;-46
2021/01/01 05:40:07;;;;;;;37.22;18.25;;;;;;;-2.66;100.00;95250.31;4987400;28;20390;-43
2021/01/01 05:42:34;;;;;;;37.30;17.38;;;;;;;-2.54;100.00;95247.00;4954687;28;20729;-42
2021/01/01 05:45:16;;;;;;;39.30;17.35;;;;;;;-2.41;100.00;95250.47;4989423;28;20047;-44
2021/01/01 05:48:02;;;;;;;33.47;17.42;;;;;;;-2.39;100.00;95247.78;4946024;28;20039;-43
2021/01/01 05:50:29;;;;;;;36.28;18.38;;;;;;;-2.37;100.00;95258.84;4973926;28;20485;-42
2021/01/01 05:53:09;;;;;;;33.65;17.92;;;;;;;-2.33;100.00;95262.06;4964556;28;20056;-42
2021/01/01 05:55:36;;;;;;;32.70;17.65;;;;;;;-2.25;100.00;95267.56;4984635;28;20047;-47
2021/01/01 05:58:03;;;;;;;36.03;19.10;;;;;;;-2.20;100.00;95270.72;4946029;28;20101;-47
2021/01/01 06:00:31;;;;;;;33.58;16.13;;;;;;;-2.28;100.00;95266.00;4981549;28;20045;-43
2021/01/01 06:03:00;;;;;;;35.00;18.25;;;;;;;-2.25;100.00;95265.00;4951658;28;20039;-46
2021/01/01 06:05:28;;;;;;;39.45;20.45;;;;;;;-2.12;100.00;95263.28;4980932;28;20340;-43
2021/01/01 06:07:58;;;;;;;42.88;20.70;;;;;;;-2.13;100.00;95259.06;4952578;28;20046;-45
2021/01/01 06:10:26;;;;;;;37.28;19.60;;;;;;;-2.03;100.00;95262.72;4991161;28;20074;-46
2021/01/01 06:12:56;;;;;;;41.63;20.73;;;;;;;-2.11;99.30;95266.69;4958095;28;20049;-42
2021/01/01 06:15:23;;;;;;;40.45;19.73;;;;;;;-2.13;99.80;95271.13;4984409;28;20038;-44
2021/01/01 06:17:51;;;;;;;38.13;20.13;;;;;;;-2.32;100.00;95274.88;4952347;28;20094;-43
2021/01/01 06:20:20;;;;;;;39.03;19.10;;;;;;;-2.39;100.00;95276.19;4982749;28;20051;-47
2021/01/01 06:23:00;;;;;;;44.33;20.38;;;;;;;-2.46;100.00;95280.88;4954815;28;20121;-43
2021/01/01 06:25:28;;;;;;;;;;;;;;;-2.48;100.00;95282.75;4986476;28;20113;-44
2021/01/01 06:27:55;;;;;;;38.17;18.30;;;;;;;-2.44;100.00;95283.38;4950657;28;19921;-45
2021/01/01 06:30:23;;;;;;;33.17;17.25;;;;;;;-2.45;100.00;95279.97;4985395;28;20073;-45
2021/01/01 06:32:51;;;;;;;37.58;19.10;;;;;;;-2.31;100.00;95289.44;4988070;28;20556;-44
2021/01/01 06:35:21;;;;;;;41.15;20.30;;;;;;;-2.20;100.00;95291.38;4954044;28;20078;-43
2021/01/01 06:37:49;;;;;;;40.20;20.08;;;;;;;-2.52;100.00;95306.25;4983888;28;20031;-46
2021/01/01 06:40:36;;;;;;;38.90;19.58;;;;;;;-2.63;100.00;95310.31;4952442;28;20129;-47
2021/01/01 06:43:04;;;;;;;40.20;20.50;;;;;;;-2.62;100.00;95318.88;4987870;28;20049;-42
2021/01/01 06:45:35;;;;;;;41.33;19.27;;;;;;;-2.68;100.00;95332.16;4943513;28;20073;-45
2021/01/01 06:48:04;;;;;;;36.90;19.55;;;;;;;-2.75;100.00;95329.13;4988680;28;20078;-47
2021/01/01 06:50:33;;;;;;;38.95;19.58;;;;;;;-2.88;100.00;95335.94;4919625;28;20120;-43
2021/01/01 06:53:06;;;;;;;37.15;19.98;;;;;;;-2.94;100.00;95326.78;4972059;28;20046;-45
2021/01/01 06:55:34;;;;;;;38.75;19.27;;;;;;;-2.94;100.00;95337.09;4953975;28;20073;-43
2021/01/01 06:58:01;;;;;;;38.30;19.95;;;;;;;-2.90;100.00;95327.44;4987001;28;20034;-42
2021/01/01 07:00:56;;;;;;;35.65;19.17;;;;;;;-3.00;100.00;95334.88;4949111;28;20046;-44
2021/01/01 07:03:33;;;;;;;37.85;18.02;;;;;;;-3.11;100.00;95343.25;4985361;28;20513;-45
2021/01/01 07:06:39;;;;;;;35.97;18.25;;;;;;;-3.18;100.00;95348.84;4947564;28;20132;-43
2021/01/01 07:09:10;;;;;;;35.50;18.27;;;;;;;-3.07;100.00;95356.78;4981598;28;20050;-46
2021/01/01 07:11:39;;;;;;;37.15;18.20;;;;;;;-3.08;100.00;95347.41;4946769;28;20062;-43
2021/01/01 07:14:08;;;;;;;38.55;19.05;;;;;;;-3.09;100.00;95352.66;4982479;28;20523;-44
2021/01/01 07:16:38;;;;;;;32.10;16.63;;;;;;;-3.14;100.00;95365.81;4948446;28;20467;-44
2021/01/01 07:19:05;;;;;;;31.67;17.93;;;;;;;-3.12;100.00;95366.56;4966524;28;20125;-47
2021/01/01 07:21:32;;;;;;;35.85;16.83;;;;;;;-3.23;100.00;95364.59;4950584;28;20096;-44
2021/01/01 07:24:00;;;;;;;36.97;16.98;;;;;;;-3.20;100.00;95368.72;4982587;28;20042;-44
2021/01/01 07:26:30;;;;;;;36.97;18.30;;;;;;;-3.04;100.00;95369.50;4941841;28;21660;-46
2021/01/01 07:29:01;;;;;;;34.78;18.63;;;;;;;-2.97;100.00;95372.56;4970398;28;20133;-45
2021/01/01 07:31:29;;;;;;;33.88;17.83;;;;;;;-3.23;100.00;95371.50;4952085;28;20129;-43
2021/01/01 07:34:06;;;;;;;36.58;18.67;;;;;;;-3.11;100.00;95375.94;4983442;28;20041;-46
2021/01/01 07:36:34;;;;;;;34.42;19.08;;;;;;;-3.13;100.00;95378.63;4945851;28;20050;-45
2021/01/01 07:39:05;;;;;;;33.72;17.73;;;;;;;-3.12;100.00;95380.28;4985586;28;20118;-44
2021/01/01 07:41:32;;;;;;;34.42;17.13;;;;;;;-3.01;100.00;95378.81;4944089;28;20042;-42
2021/01/01 07:43:59;;;;;;;35.17;17.48;;;;;;;-3.04;100.00;95376.41;4987375;28;20077;-43
2021/01/01 07:46:29;;;;;;;36.72;18.40;;;;;;;-3.04;100.00;95372.09;4939943;28;20146;-44
2021/01/01 07:48:56;;;;;;;;;;;;;;;-2.97;100.00;95375.97;4980272;28;20042;-45
2021/01/01 07:51:23;;;;;;;33.25;17.35;;;;;;;-2.74;100.00;95384.13;4943035;28;22566;-42
2021/01/01 07:53:58;;;;;;;34.92;17.63;;;;;;;-2.76;100.00;95376.47;4985239;28;20104;-45
2021/01/01 07:56:26;;;;;;;35.08;18.05;;;;;;;-2.54;100.00;95373.44;4937299;28;20050;-44
2021/01/01 07:58:54;;;;;;;32.72;17.48;;;;;;;-2.36;100.00;95368.91;4986327;28;20146;-44
2021/01/01 08:01:22;;;;;;;34.72;17.30;;;;;;;-2.18;100.00;95375.53;4981308;28;20489;-48
2021/01/01 08:03:49;;;;;;;32.35;15.77;;;;;;;-2.11;100.00;95370.00;4957310;28;20038;-44
2021/01/01 08:06:17;;;;;;;37.42;18.27;;;;;;;-2.15;99.98;95379.69;4970035;28;20039;-43
2021/01/01 08:08:44;;;;;;;34.47;16.70;;;;;;;-2.13;99.75;95389.91;4949784;28;20054;-44
2021/01/01 08:11:12;;;;;;;36.40;17.42;;;;;;;-2.25;98.04;95392.31;4984541;28;20038;-43
2021/01/01 08:13:40;;;;;;;33.20;17.45;;;;;;;-2.41;100.00;95386.41;4949118;28;20042;-45
2021/01/01 08:16:11;;;;;;;35.30;17.67;;;;;;;-2.34;100.00;95390.31;4975708;28;20054;-44
2021/01/01 08:18:38;;;;;;;35.67;18.10;;;;;;;-2.04;100.00;95381.59;4944921;28;20057;-46
2021/01/01 08:21:06;;;;;;;34.17;17.77;;;;;;;-2.01;100.00;95389.16;4980738;28;20061;-43
2021/01/01 08:23:39;;;;;;;35.85;18.30;;;;;;;-2.07;100.00;95389.53;4952582;28;20505;-43
2021/01/01 08:26:07;;;;;;;35.47;18.55;;;;;;;-2.00;100.00;95399.38;4986441;28;20039;-44
2021/01/01 08:28:35;;;;;;;33.83;17.92;;;;;;;-1.76;100.00;95398.81;4932996;28;20038;-48
2021/01/01 08:31:04;;;;;;;39.75;19.95;;;;;;;-1.56;99.84;95390.63;4981422;28;20034;-43
2021/01/01 08:33:34;;;;;;;38.20;19.00;;;;;;;-1.26;98.95;95381.84;4952286;28;20525;-44
2021/01/01 08:36:03;;;;;;;37.33;19.65;;;;;;;-1.07;97.38;95386.63;4979664;28;20314;-43
2021/01/01 08:38:30;;;;;;;39.65;21.23;;;;;;;-1.10;96.38;95382.50;4941721;28;20509;-43
2021/01/01 08:40:58;;;;;;;39.30;20.35;;;;;;;-1.25;96.79;95394.66;4987568;28;20048;-43
2021/01/01 08:43:26;;;;;;;36.33;20.05;;;;;;;-1.53;98.66;95398.19;4951810;28;20046;-47
2021/01/01 08:45:53;;;;;;;36.80;19.95;;;;;;;-1.46;99.59;95402.03;4960610;28;20061;-43
2021/01/01 08:48:22;;;;;;;35.42;19.35;;;;;;;-1.21;98.76;95406.47;4929631;28;20077;-43
2021/01/01 08:50:50;;;;;;;40.30;19.73;;;;;;;-1.08;98.11;95400.50;4980339;28;20042;-45
2021/01/01 08:53:18;;;;;;;41.85;19.90;;;;;;;-0.81;96.69;95388.34;4952961;28;20035;-44
2021/01/01 08:55:57;;;;;;;38.40;19.85;;;;;;;-0.63;95.46;95394.03;4949442;28;20066;-43
2021/01/01 08:58:26;;;;;;;36.30;21.20;;;;;;;-0.47;93.04;95393.84;4966803;28;20045;-46
2021/01/01 09:01:16;;;;;;;38.83;19.67;;;;;;;-0.13;90.98;95400.16;4982638;28;20293;-46
2021/01/01 09:03:44;;;;;;;36.88;20.70;;;;;;;0.05;89.21;95403.22;4982630;28;20045;-43
2021/01/01 09:06:16;;;;;;;40.00;20.67;;;;;;;0.36;87.84;95411.44;4963274;28;20113;-44
2021/01/01 09:08:44;;;;;;;37.58;20.60;;;;;;;0.66;85.91;95401.47;4977943;28;20108;-44
2021/01/01 09:11:20;;;;;;;39.10;22.05;;;;;;;0.67;84.88;95410.91;4945038;28;20047;-44
2021/01/01 09:13:58;;;;;;;41.10;22.13;;;;;;;0.80;84.90;95408.28;4979738;28;20057;-43
2021/01/01 09:16:44;;;;;;;42.03;22.20;;;;;;;0.98;83.75;95410.47;4980247;28;21518;-44
2021/01/01 09:19:12;;;;;;;40.58;20.75;;;;;;;0.93;82.50;95413.41;4983636;28;20575;-45
2021/01/01 09:21:40;;;;;;;34.00;20.08;;;;;;;1.00;82.04;95416.34;4941645;28;20077;-46
2021/01/01 09:24:07;;;;;;;40.50;21.60;;;;;;;0.90;84.15;95424.00;4984040;28;20650;-46
2021/01/01 09:26:35;;;;;;;37.03;20.63;;;;;;;0.92;83.79;95422.09;4934702;28;20375;-46
2021/01/01 09:29:03;;;;;;;36.97;20.25;;;;;;;0.83;83.99;95427.97;4986301;28;20121;-43
2021/01/01 09:31:31;;;;;;;38.70;20.25;;;;;;;0.99;83.95;95436.28;4932223;28;20048;-43
2021/01/01 09:34:00;;;;;;;34.90;20.33;;;;;;;0.74;84.47;95432.06;4951228;28;20038;-44
2021/01/01 09:36:28;;;;;;;36.38;20.52;;;;;;;0.86;85.87;95428.59;4935477;28;20287;-43
2021/01/01 09:38:55;;;;;;;36.30;20.83;;;;;;;1.30;84.68;95434.88;4981536;28;20555;-46
2021/01/01 09:41:22;;;;;;;36.50;20.52;;;;;;;1.59;82.51;95432.72;4926719;28;20096;-46
2021/01/01 09:43:49;;;;;;;31.65;18.48;;;;;;;1.42;82.81;95444.38;4952077;28;20042;-44
2021/01/01 09:46:16;;;;;;;36.95;21.00;;;;;;;1.63;81.98;95441.94;4938622;28;20050;-43
2021/01/01 09:48:43;;;;;;;34.88;19.98;;;;;;;1.95;81.69;95441.25;4969211;28;20045;-44
2021/01/01 09:51:10;;;;;;;43.80;22.88;;;;;;;1.90;81.48;95440.81;4917819;28;20050;-45
2021/01/01 09:53:38;;;;;;;39.15;23.80;;;;;;;1.99;80.95;95452.25;4987564;28;20058;-44
2021/01/01 09:56:05;;;;;;;39.25;22.98;;;;;;;1.67;82.22;95458.94;4952886;28;20563;-44
2021/01/01 09:58:32;;;;;;;38.83;20.80;;;;;;;1.75;83.23;95463.56;4966430;28;20906;-45
2021/01/01 10:01:01;;;;;;;37.53;22.58;;;;;;;1.99;82.55;95460.06;4934298;28;20046;-47
2021/01/01 10:03:28;;;;;;;37.78;20.17;;;;;;;1.77;83.36;95464.28;4976427;28;20069;-44
2021/01/01 10:05:55;;;;;;;32.88;17.63;;;;;;;2.27;81.60;95466.56;4952346;28;20062;-45
2021/01/01 10:08:22;;;;;;;32.35;20.27;;;;;;;1.63;83.38;95461.91;4938327;28;20046;-44
2021/01/01 10:10:52;;;;;;;33.63;18.42;;;;;;;1.22;84.96;95465.78;4988783;28;20563;-44
2021/01/01 10:13:19;;;;;;;33.25;20.17;;;;;;;1.19;85.52;95464.22;4945564;28;20042;-44
2021/01/01 10:15:46;;;;;;;32.95;19.10;;;;;;;1.67;83.97;95460.72;4970262;28;20042;-46
2021/01/01 10:18:13;;;;;;;30.20;18.00;;;;;;;2.01;79.34;95461.59;4937511;28;20034;-43
2021/01/01 10:20:40;;;;;;;32.33;18.58;;;;;;;2.25;78.10;95469.28;4985356;28;20456;-47
2021/01/01 10:23:08;;;;;;;27.60;14.73;;;;;;;1.89;79.91;95475.50;4933428;28;20409;-48
2021/01/01 10:25:34;;;;;;;31.27;18.23;;;;;;;1.93;79.84;95476.13;4987763;28;20109;-47
2021/01/01 10:28:03;;;;;;;26.80;15.23;;;;;;;1.88;78.58;95479.88;4953449;28;20042;-44
2021/01/01 10:30:30;;;;;;;25.65;14.18;;;;;;;1.77;80.53;95477.28;4981489;28;20038;-44
2021/01/01 10:32:57;;;;;;;29.15;15.02;;;;;;;2.08;80.56;95478.38;4930302;28;20142;-43
2021/01/01 10:35:25;;;;;;;29.48;15.95;;;;;;;2.19;78.49;95472.38;4983796;28;20128;-50
2021/01/01 10:37:52;;;;;;;27.58;15.50;;;;;;;2.45;77.88;95478.16;4956070;28;20042;-44
2021/01/01 10:40:19;;;;;;;29.83;15.77;;;;;;;2.46;76.80;95479.00;4986031;28;20497;-46
2021/01/01 10:42:47;;;;;;;27.27;14.93;;;;;;;2.76;75.29;95470.56;4948440;28;20042;-44
2021/01/01 10:45:34;;;;;;;28.27;16.38;;;;;;;2.89;75.11;95465.19;4952684;28;20501;-46
2021/01/01 10:48:01;;;;;;;29.08;16.60;;;;;;;3.19;75.28;95460.13;4946808;28;20053;-44
2021/01/01 10:50:28;;;;;;;32.75;17.05;;;;;;;3.17;73.73;95462.03;4978908;28;20062;-44
2021/01/01 10:52:55;;;;;;;33.72;17.35;;;;;;;2.99;74.30;95447.88;4985893;28;20504;-44
2021/01/01 10:55:23;;;;;;;32.90;17.23;;;;;;;3.16;73.34;95439.53;4931622;28;20511;-43
2021/01/01 10:57:50;;;;;;;30.45;17.20;;;;;;;3.17;74.04;95438.59;4986444;28;20053;-45
2021/01/01 11:00:18;;;;;;;33.38;18.23;;;;;;;3.32;73.57;95436.53;4934271;28;20046;-45
2021/01/01 11:02:47;;;;;;;34.40;18.90;;;;;;;3.67;73.48;95438.81;4984312;28;20444;-48
2021/01/01 11:05:14;;;;;;;34.35;19.38;;;;;;;3.43;72.06;95433.03;4948811;28;20053;-48
2021/01/01 11:07:43;;;;;;;32.33;17.77;;;;;;;3.79;69.81;95424.78;4985491;28;20517;-44
2021/01/01 11:10:11;;;;;;;34.28;18.55;;;;;;;4.14;69.24;95425.34;4952662;28;20489;-44
2021/01/01 11:12:38;;;;;;;35.13;19.63;;;;;;;3.94;69.17;95421.81;4985014;28;20460;-45
2021/01/01 12:22:05;;;;;;;34.40;19.33;;;;;;;4.37;70.52;95382.47;4934033;28;22774;-47
2021/01/01 12:24:46;;;;;;;36.38;19.63;;;;;;;4.51;69.69;95389.09;4983706;28;20523;-46
2021/01/01 12:27:16;;;;;;;33.08;18.98;;;;;;;4.67;68.53;95383.34;4947970;28;20073;-46